createdAt,value
2018-11-11T00:01:15.144Z,13.87
2018-11-11T00:03:43.792Z,13.10
2018-11-11T00:06:12.494Z,12.47
2018-11-11T00:08:41.139Z,13.47
2018-11-11T00:11:09.870Z,13.90
2018-11-11T00:13:38.479Z,14.00
2018-11-11T00:16:07.257Z,13.57
2018-11-11T00:18:35.875Z,13.80
2018-11-11T00:21:04.753Z,14.80
2018-11-11T00:23:33.462Z,13.80
2018-11-11T00:26:02.762Z,13.70
2018-11-11T00:28:31.357Z,13.83
2018-11-11T00:31:00.661Z,14.23
2018-11-11T00:33:29.308Z,12.67
2018-11-11T00:35:57.864Z,13.47
2018-11-11T00:38:27.244Z,14.47
2018-11-11T00:40:55.888Z,14.70
2018-11-11T00:43:24.579Z,13.30
2018-11-11T00:45:53.301Z,12.43
2018-11-11T00:48:21.846Z,13.43
2018-11-11T00:50:50.435Z,15.47
2018-11-11T00:53:20.472Z,14.10
2018-11-11T00:55:49.370Z,13.57
2018-11-11T00:58:18.413Z,13.00
2018-11-11T01:00:47.027Z,12.17
2018-11-11T01:03:15.759Z,13.33
2018-11-11T01:05:44.466Z,13.73
2018-11-11T01:08:13.079Z,21.37
2018-11-11T01:10:41.672Z,17.23
2018-11-11T01:13:10.297Z,15.33
2018-11-11T01:15:39.035Z,24.13
2018-11-11T01:18:07.824Z,19.40
2018-11-11T01:20:36.513Z,15.80
2018-11-11T01:23:05.766Z,19.83
2018-11-11T01:25:34.359Z,13.53
2018-11-11T01:28:02.993Z,36.20
2018-11-11T01:30:31.560Z,18.30
2018-11-11T01:33:00.248Z,20.00
2018-11-11T01:35:28.966Z,13.93
2018-11-11T01:37:57.745Z,16.00
2018-11-11T01:40:26.362Z,15.87
2018-11-11T01:42:54.971Z,16.80
2018-11-11T01:45:23.554Z,16.27
2018-11-11T01:47:52.162Z,14.10
2018-11-11T01:50:20.754Z,20.77
2018-11-11T01:52:49.456Z,18.97
2018-11-11T01:55:19.171Z,10.00
2018-11-11T01:57:47.787Z,17.70
2018-11-11T02:00:17.632Z,18.83
2018-11-11T02:02:47.050Z,19.70
2018-11-11T02:05:16.112Z,24.57
2018-11-11T02:07:46.751Z,12.03
2018-11-11T02:10:15.557Z,13.33
2018-11-11T02:12:45.234Z,12.13
2018-11-11T02:15:15.269Z,9.37
2018-11-11T02:17:43.944Z,19.83
2018-11-11T02:20:20.930Z,28.73
2018-11-11T02:22:50.868Z,15.47
2018-11-11T02:25:19.427Z,12.63
2018-11-11T02:27:48.069Z,21.07
2018-11-11T02:30:18.903Z,14.43
2018-11-11T02:32:47.494Z,9.83
2018-11-11T02:35:16.121Z,19.27
2018-11-11T02:37:45.068Z,12.87
2018-11-11T02:51:59.329Z,7.53
2018-11-11T02:57:30.452Z,6.93
2018-11-11T02:59:59.140Z,7.10
2018-11-11T03:02:27.789Z,6.97
2018-11-11T03:04:56.557Z,7.13
2018-11-11T03:07:25.417Z,6.33
2018-11-11T03:09:54.183Z,7.20
2018-11-11T03:12:22.844Z,6.93
2018-11-11T03:14:51.433Z,8.27
2018-11-11T03:17:20.041Z,8.30
2018-11-11T03:19:48.606Z,7.90
2018-11-11T03:22:17.190Z,7.67
2018-11-11T03:24:45.717Z,8.07
2018-11-11T03:27:14.276Z,7.73
2018-11-11T03:29:42.829Z,8.27
2018-11-11T03:32:11.410Z,8.07
2018-11-11T03:34:39.985Z,8.87
2018-11-11T03:37:08.571Z,7.43
2018-11-11T03:39:37.373Z,9.37
2018-11-11T03:42:06.195Z,7.97
2018-11-11T03:44:34.851Z,11.10
2018-11-11T03:47:03.621Z,8.63
2018-11-11T03:49:32.382Z,10.57
2018-11-11T03:52:01.415Z,8.43
2018-11-11T03:54:30.046Z,8.83
2018-11-11T03:56:58.954Z,8.50
2018-11-11T03:59:27.658Z,9.70
2018-11-11T04:01:56.416Z,7.93
2018-11-11T04:04:25.171Z,9.83
2018-11-11T04:06:53.772Z,9.60
2018-11-11T04:09:22.414Z,9.10
2018-11-11T04:11:51.099Z,11.60
2018-11-11T04:14:19.888Z,9.40
2018-11-11T04:16:48.643Z,8.90
2018-11-11T04:19:17.393Z,9.70
2018-11-11T04:21:46.150Z,10.20
2018-11-11T04:24:14.856Z,8.37
2018-11-11T04:26:43.743Z,8.93
2018-11-11T04:29:12.473Z,9.80
2018-11-11T04:31:41.143Z,8.93
2018-11-11T04:34:10.070Z,9.00
2018-11-11T04:36:38.643Z,7.53
2018-11-11T04:39:10.297Z,7.47
2018-11-11T04:41:38.847Z,9.10
2018-11-11T04:44:07.637Z,7.17
2018-11-11T04:46:36.401Z,6.90
2018-11-11T04:49:05.229Z,7.13
2018-11-11T04:51:33.858Z,7.37
2018-11-11T04:54:02.541Z,6.93
2018-11-11T04:56:31.161Z,7.37
2018-11-11T04:58:59.791Z,5.70
2018-11-11T05:01:28.636Z,6.20
2018-11-11T05:03:57.332Z,6.00
2018-11-11T05:06:25.863Z,6.90
2018-11-11T05:08:54.684Z,7.07
2018-11-11T05:11:23.277Z,5.80
2018-11-11T05:13:51.956Z,7.23
2018-11-11T05:16:20.610Z,7.30
2018-11-11T05:18:49.213Z,6.43
2018-11-11T05:21:17.942Z,6.23
2018-11-11T05:23:46.607Z,7.00
2018-11-11T05:26:15.375Z,6.20
2018-11-11T05:28:44.071Z,5.57
2018-11-11T05:31:12.653Z,5.20
2018-11-11T05:33:41.206Z,5.00
2018-11-11T05:36:09.774Z,4.90
2018-11-11T05:38:38.399Z,5.33
2018-11-11T05:41:07.299Z,5.10
2018-11-11T05:43:36.004Z,6.77
2018-11-11T05:46:04.711Z,6.53
2018-11-11T05:48:33.306Z,7.30
2018-11-11T05:51:02.093Z,8.53
2018-11-11T05:53:30.684Z,8.90
2018-11-11T05:55:59.322Z,7.80
2018-11-11T05:58:27.900Z,9.90
2018-11-11T06:00:56.563Z,9.23
2018-11-11T06:03:25.318Z,8.43
2018-11-11T06:05:54.004Z,7.90
2018-11-11T06:08:22.742Z,8.13
2018-11-11T06:10:51.444Z,8.47
2018-11-11T06:13:20.071Z,8.40
2018-11-11T06:15:48.830Z,8.50
2018-11-11T06:18:17.484Z,8.40
2018-11-11T06:20:46.133Z,9.53
2018-11-11T06:23:14.846Z,9.80
2018-11-11T06:25:43.531Z,8.93
2018-11-11T06:28:12.174Z,7.33
2018-11-11T06:30:40.812Z,9.37
2018-11-11T06:33:09.400Z,9.13
2018-11-11T06:35:38.001Z,7.67
2018-11-11T06:38:06.603Z,9.23
2018-11-11T06:40:35.256Z,8.53
2018-11-11T06:43:03.927Z,9.20
2018-11-11T06:45:32.565Z,9.93
2018-11-11T06:48:01.246Z,9.87
2018-11-11T06:50:29.892Z,11.50
2018-11-11T06:52:58.636Z,10.73
2018-11-11T06:55:27.322Z,9.77
2018-11-11T06:57:55.975Z,11.30
2018-11-11T07:00:24.681Z,9.47
2018-11-11T07:03:04.590Z,9.63
2018-11-11T07:05:33.204Z,8.93
2018-11-11T07:08:01.878Z,10.13
2018-11-11T07:10:31.566Z,9.40
2018-11-11T07:13:00.307Z,8.23
2018-11-11T07:15:29.184Z,9.63
2018-11-11T07:17:57.881Z,9.60
2018-11-11T07:20:26.798Z,9.23
2018-11-11T07:22:55.383Z,11.70
2018-11-11T07:25:24.124Z,9.03
2018-11-11T07:27:52.619Z,8.90
2018-11-11T07:30:21.221Z,9.73
2018-11-11T07:32:50.994Z,9.50
2018-11-11T07:35:19.668Z,9.60
2018-11-11T07:37:48.276Z,9.57
2018-11-11T07:40:17.415Z,11.20
2018-11-11T07:42:46.062Z,9.27
2018-11-11T07:45:14.738Z,10.30
2018-11-11T07:47:43.533Z,10.93
2018-11-11T07:50:12.633Z,9.00
2018-11-11T07:52:41.322Z,9.57
2018-11-11T07:55:12.044Z,9.30
2018-11-11T07:57:41.089Z,8.57
2018-11-11T08:00:11.929Z,9.47
2018-11-11T08:02:40.714Z,8.43
2018-11-11T08:05:09.743Z,8.20
2018-11-11T08:07:38.485Z,9.30
2018-11-11T08:10:17.484Z,9.00
2018-11-11T08:12:46.394Z,8.10
2018-11-11T08:15:15.039Z,7.53
2018-11-11T08:17:44.030Z,7.83
2018-11-11T08:20:12.723Z,8.50
2018-11-11T08:22:41.850Z,6.93
2018-11-11T08:25:10.513Z,7.93
2018-11-11T08:27:39.227Z,6.97
2018-11-11T08:30:08.934Z,7.00
2018-11-11T08:32:38.004Z,6.10
2018-11-11T08:35:07.713Z,6.80
2018-11-11T08:37:36.314Z,6.83
2018-11-11T08:40:05.463Z,6.37
2018-11-11T08:42:34.163Z,6.60
2018-11-11T08:45:03.091Z,6.50
2018-11-11T08:47:31.761Z,6.13
2018-11-11T08:50:00.478Z,6.20
2018-11-11T08:52:29.081Z,6.77
2018-11-11T08:54:57.812Z,6.20
2018-11-11T08:57:26.576Z,5.87
2018-11-11T08:59:55.340Z,4.83
2018-11-11T09:02:24.066Z,5.87
2018-11-11T09:04:53.188Z,6.40
2018-11-11T09:07:21.968Z,5.93
2018-11-11T09:09:50.598Z,5.50
2018-11-11T09:12:19.225Z,5.73
2018-11-11T09:14:47.977Z,5.70
2018-11-11T09:17:16.720Z,5.50
2018-11-11T09:19:45.474Z,5.10
2018-11-11T09:22:14.164Z,4.90
2018-11-11T09:24:42.793Z,5.03
2018-11-11T09:27:11.512Z,5.20
2018-11-11T09:29:40.259Z,5.30
2018-11-11T09:32:08.932Z,5.87
2018-11-11T09:34:37.711Z,5.13
2018-11-11T09:37:06.609Z,4.73
2018-11-11T09:39:35.248Z,5.17
2018-11-11T09:42:03.941Z,5.50
2018-11-11T09:44:32.673Z,4.50
2018-11-11T09:47:01.363Z,4.83
2018-11-11T09:49:30.134Z,4.57
2018-11-11T09:51:59.166Z,4.33
2018-11-11T09:54:28.152Z,4.07
2018-11-11T09:56:56.938Z,4.63
2018-11-11T09:59:25.735Z,4.80
2018-11-11T10:02:03.503Z,4.23
2018-11-11T10:04:40.035Z,4.77
2018-11-11T10:07:15.819Z,4.37
2018-11-11T10:09:49.696Z,4.37
2018-11-11T10:12:23.806Z,4.43
2018-11-11T10:15:00.637Z,4.83
2018-11-11T10:18:33.257Z,4.80
2018-11-11T10:24:07.077Z,5.10
2018-11-11T10:26:42.855Z,4.70
2018-11-11T10:30:16.601Z,3.87
2018-11-11T10:33:02.526Z,4.50
2018-11-11T10:35:53.236Z,4.50
2018-11-11T10:38:28.372Z,4.33
2018-11-11T10:41:01.566Z,6.47
2018-11-11T10:43:37.031Z,5.20
2018-11-11T10:46:10.315Z,4.23
2018-11-11T10:48:41.952Z,4.30
2018-11-11T10:51:11.214Z,4.33
2018-11-11T10:53:40.927Z,4.57
2018-11-11T10:56:09.795Z,4.37
2018-11-11T10:58:43.705Z,4.37
2018-11-11T11:01:18.889Z,4.03
2018-11-11T11:03:47.708Z,4.07
2018-11-11T11:06:16.597Z,3.93
2018-11-11T11:08:50.563Z,3.47
2018-11-11T11:11:19.337Z,6.60
2018-11-11T11:13:48.122Z,4.87
2018-11-11T11:16:16.866Z,3.80
2018-11-11T11:18:45.637Z,3.90
2018-11-11T11:21:14.859Z,3.53
2018-11-11T11:23:43.948Z,3.30
2018-11-11T11:26:12.949Z,4.30
2018-11-11T11:28:41.968Z,4.57
2018-11-11T11:31:11.195Z,4.43
2018-11-11T11:33:40.158Z,3.20
2018-11-11T11:36:09.189Z,2.80
2018-11-11T11:38:39.081Z,4.30
2018-11-11T11:41:07.721Z,4.20
2018-11-11T11:43:36.528Z,2.73
2018-11-11T11:46:05.793Z,2.33
2018-11-11T11:48:35.918Z,2.27
2018-11-11T11:51:05.256Z,4.07
2018-11-11T11:53:34.083Z,2.17
2018-11-11T11:56:03.015Z,2.73
2018-11-11T11:58:33.034Z,2.10
2018-11-11T12:01:01.858Z,1.67
2018-11-11T12:03:30.596Z,1.70
2018-11-11T12:05:59.292Z,1.53
2018-11-11T12:08:28.144Z,1.60
2018-11-11T12:10:57.291Z,1.73
2018-11-11T12:13:26.251Z,2.23
2018-11-11T12:15:55.307Z,1.30
2018-11-11T12:18:24.060Z,2.37
2018-11-11T12:20:52.779Z,2.07
2018-11-11T12:23:22.064Z,1.40
2018-11-11T12:25:51.121Z,2.73
2018-11-11T12:28:20.195Z,1.33
2018-11-11T12:30:49.179Z,1.47
2018-11-11T12:33:17.978Z,1.90
2018-11-11T12:35:47.253Z,1.57
2018-11-11T12:38:15.982Z,2.07
2018-11-11T12:40:44.625Z,1.20
2018-11-11T12:43:13.339Z,1.40
2018-11-11T12:45:41.927Z,1.20
2018-11-11T12:48:10.815Z,1.40
2018-11-11T12:50:39.538Z,1.27
2018-11-11T12:53:08.177Z,1.23
2018-11-11T12:55:36.883Z,1.30
2018-11-11T12:58:06.225Z,1.20
2018-11-11T13:00:34.965Z,1.07
2018-11-11T13:03:03.726Z,0.90
2018-11-11T13:05:32.402Z,1.20
2018-11-11T13:08:01.352Z,1.20
2018-11-11T13:10:30.687Z,2.23
2018-11-11T13:12:59.312Z,1.97
2018-11-11T13:15:28.251Z,1.43
2018-11-11T13:17:57.047Z,1.10
2018-11-11T13:20:25.771Z,1.80
2018-11-11T13:22:54.823Z,1.63
2018-11-11T13:25:23.577Z,1.37
2018-11-11T13:27:52.396Z,0.80
2018-11-11T13:30:21.297Z,1.53
2018-11-11T13:32:50.200Z,1.37
2018-11-11T13:35:19.055Z,1.20
2018-11-11T13:37:53.418Z,0.97
2018-11-11T13:40:25.396Z,1.27
2018-11-11T13:42:54.243Z,2.03
2018-11-11T13:45:23.597Z,1.53
2018-11-11T13:47:52.781Z,1.17
2018-11-11T13:50:24.122Z,1.23
2018-11-11T13:52:54.277Z,1.40
2018-11-11T13:55:23.453Z,1.30
2018-11-11T13:57:52.307Z,1.07
2018-11-11T14:00:26.898Z,1.43
2018-11-11T14:02:56.029Z,2.27
2018-11-11T14:05:25.020Z,2.53
2018-11-11T14:07:53.659Z,2.63
2018-11-11T14:10:23.867Z,3.00
2018-11-11T14:12:52.728Z,2.47
2018-11-11T14:15:26.320Z,1.50
2018-11-11T14:17:55.669Z,1.27
2018-11-11T14:20:25.449Z,2.63
2018-11-11T14:22:55.050Z,1.80
2018-11-11T14:25:26.643Z,1.80
2018-11-11T14:27:55.295Z,1.87
2018-11-11T14:30:25.414Z,3.87
2018-11-11T14:32:54.895Z,2.27
2018-11-11T14:35:23.762Z,3.47
2018-11-11T14:37:52.956Z,2.53
2018-11-11T14:40:23.558Z,3.10
2018-11-11T14:42:52.393Z,2.70
2018-11-11T14:45:23.429Z,2.37
2018-11-11T14:47:54.276Z,2.47
2018-11-11T14:50:23.671Z,2.17
2018-11-11T14:52:52.617Z,2.90
2018-11-11T14:55:22.619Z,1.77
2018-11-11T14:57:51.310Z,1.50
2018-11-11T15:00:23.347Z,2.03
2018-11-11T15:02:59.026Z,2.23
2018-11-11T15:05:28.019Z,3.83
2018-11-11T15:07:56.898Z,2.93
2018-11-11T15:10:25.539Z,4.43
2018-11-11T15:12:54.528Z,4.07
2018-11-11T15:15:24.185Z,1.90
2018-11-11T15:17:54.441Z,2.63
2018-11-11T15:20:23.263Z,5.23
2018-11-11T15:22:51.888Z,3.53
2018-11-11T15:25:22.222Z,3.23
2018-11-11T15:27:51.193Z,3.33
2018-11-11T15:30:26.264Z,2.77
2018-11-11T15:32:55.534Z,1.67
2018-11-11T15:35:24.277Z,2.57
2018-11-11T15:37:52.977Z,2.37
2018-11-11T15:40:27.888Z,2.87
2018-11-11T15:42:56.747Z,2.57
2018-11-11T15:45:26.959Z,2.07
2018-11-11T15:47:55.776Z,2.33
2018-11-11T15:50:26.225Z,3.47
2018-11-11T15:52:56.396Z,2.57
2018-11-11T15:55:26.451Z,3.13
2018-11-11T15:57:55.139Z,2.07
2018-11-11T16:00:26.292Z,2.77
2018-11-11T16:02:55.041Z,2.43
2018-11-11T16:05:23.722Z,2.20
2018-11-11T16:07:53.087Z,2.07
2018-11-11T16:10:28.020Z,3.77
2018-11-11T16:12:57.034Z,1.70
2018-11-11T16:15:35.812Z,2.63
2018-11-11T16:18:07.188Z,3.53
2018-11-11T16:20:35.964Z,3.00
2018-11-11T16:23:05.740Z,2.63
2018-11-11T16:25:35.020Z,1.50
2018-11-11T16:28:03.558Z,3.30
2018-11-11T16:30:33.795Z,2.77
2018-11-11T16:33:02.796Z,4.07
2018-11-11T16:35:32.381Z,2.93
2018-11-11T16:38:01.696Z,2.90
2018-11-11T16:40:31.773Z,4.00
2018-11-11T16:43:01.029Z,3.77
2018-11-11T16:45:30.509Z,3.93
2018-11-11T16:47:59.127Z,3.57
2018-11-11T16:50:29.552Z,1.80
2018-11-11T16:52:59.676Z,2.43
2018-11-11T16:55:30.046Z,2.97
2018-11-11T16:57:58.544Z,3.87
2018-11-11T17:00:29.526Z,3.13
2018-11-11T17:02:59.222Z,2.30
2018-11-11T17:05:29.472Z,3.03
2018-11-11T17:07:58.042Z,2.43
2018-11-11T17:10:28.965Z,2.93
2018-11-11T17:12:58.895Z,3.47
2018-11-11T17:15:29.211Z,2.10
2018-11-11T17:17:58.627Z,3.33
2018-11-11T17:20:28.054Z,2.90
2018-11-11T17:23:00.012Z,2.40
2018-11-11T17:25:28.893Z,1.60
2018-11-11T17:27:57.697Z,2.30
2018-11-11T17:30:28.103Z,3.30
2018-11-11T17:32:57.507Z,2.43
2018-11-11T17:35:26.745Z,3.53
2018-11-11T17:37:56.067Z,2.67
2018-11-11T17:40:27.104Z,3.10
2018-11-11T17:42:59.445Z,2.47
2018-11-11T17:45:28.731Z,2.83
2018-11-11T17:47:59.269Z,2.00
2018-11-11T17:50:31.241Z,3.08
2018-11-11T17:53:01.162Z,2.80
2018-11-11T17:55:30.352Z,2.23
2018-11-11T17:58:00.873Z,2.00
2018-11-11T18:00:31.114Z,2.73
2018-11-11T18:05:42.212Z,2.37
2018-11-11T18:08:10.953Z,3.00
2018-11-11T18:10:39.505Z,2.70
2018-11-11T18:13:08.246Z,2.17
2018-11-11T18:15:36.831Z,3.50
2018-11-11T18:18:05.769Z,2.20
2018-11-11T18:20:34.544Z,2.43
2018-11-11T18:23:03.981Z,1.53
2018-11-11T18:25:32.526Z,3.17
2018-11-11T18:28:01.305Z,3.40
2018-11-11T18:30:33.562Z,2.77
2018-11-11T18:33:02.246Z,2.60
2018-11-11T18:35:30.968Z,3.27
2018-11-11T18:37:59.591Z,3.07
2018-11-11T18:40:29.216Z,3.07
2018-11-11T18:42:58.080Z,3.80
2018-11-11T18:45:28.087Z,3.70
2018-11-11T18:47:56.807Z,3.73
2018-11-11T18:50:29.087Z,2.77
2018-11-11T18:52:57.793Z,2.37
2018-11-11T18:55:26.654Z,2.20
2018-11-11T18:57:55.345Z,1.87
2018-11-11T19:00:25.382Z,4.47
2018-11-11T19:02:54.803Z,3.67
2018-11-11T19:05:24.402Z,2.60
2018-11-11T19:07:53.365Z,3.67
2018-11-11T19:10:23.371Z,3.30
2018-11-11T19:12:53.457Z,1.87
2018-11-11T19:15:22.387Z,2.13
2018-11-11T19:17:51.855Z,3.27
2018-11-11T19:20:22.693Z,3.10
2018-11-11T19:22:51.647Z,4.57
2018-11-11T19:25:22.042Z,2.83
2018-11-11T19:27:52.524Z,3.47
2018-11-11T19:30:23.118Z,2.63
2018-11-11T19:32:52.311Z,2.70
2018-11-11T19:35:21.061Z,3.43
2018-11-11T19:37:51.370Z,3.03
2018-11-11T19:40:21.582Z,4.13
2018-11-11T19:42:51.059Z,3.37
2018-11-11T19:45:21.105Z,3.17
2018-11-11T19:47:49.936Z,3.53
2018-11-11T19:50:20.140Z,2.60
2018-11-11T19:52:49.957Z,3.07
2018-11-11T19:55:19.564Z,2.70
2018-11-11T19:57:48.260Z,3.60
2018-11-11T20:00:20.740Z,3.53
2018-11-11T20:02:50.357Z,2.47
2018-11-11T20:05:19.566Z,3.17
2018-11-11T20:07:49.408Z,3.70
2018-11-11T20:10:19.011Z,3.40
2018-11-11T20:12:47.597Z,1.97
2018-11-11T20:15:21.047Z,2.67
2018-11-11T20:17:49.993Z,3.87
2018-11-11T20:20:20.678Z,5.57
2018-11-11T20:22:49.858Z,5.30
2018-11-11T20:25:19.497Z,3.47
2018-11-11T20:27:48.542Z,1.73
2018-11-11T20:30:19.814Z,3.53
2018-11-11T20:32:48.550Z,3.03
2018-11-11T20:35:19.889Z,2.80
2018-11-11T20:37:48.665Z,1.70
2018-11-11T20:40:18.516Z,3.07
2018-11-11T20:42:47.525Z,2.50
2018-11-11T20:45:17.682Z,2.50
2018-11-11T20:47:47.013Z,2.90
2018-11-11T20:50:17.459Z,1.90
2018-11-11T20:52:47.132Z,2.53
2018-11-11T20:55:16.662Z,2.50
2018-11-11T20:57:45.285Z,1.73
2018-11-11T21:00:17.278Z,2.03
2018-11-11T21:02:46.244Z,3.33
2018-11-11T21:05:17.369Z,2.67
2018-11-11T21:07:46.076Z,1.13
2018-11-11T21:10:16.936Z,2.90
2018-11-11T21:12:45.576Z,1.30
2018-11-11T21:15:15.513Z,2.20
2018-11-11T21:17:44.693Z,1.73
2018-11-11T21:20:14.762Z,2.70
2018-11-11T21:22:43.745Z,2.23
2018-11-11T21:25:13.038Z,1.20
2018-11-11T21:27:42.608Z,1.40
2018-11-11T21:30:13.846Z,1.97
2018-11-11T21:32:42.583Z,1.20
2018-11-11T21:35:12.039Z,1.93
2018-11-11T21:37:41.094Z,1.30
2018-11-11T21:40:12.000Z,1.30
2018-11-11T21:42:41.135Z,1.43
2018-11-11T21:45:11.261Z,1.10
2018-11-11T21:47:40.020Z,2.03
2018-11-11T21:50:11.196Z,3.80
2018-11-11T21:52:39.828Z,3.47
2018-11-11T21:55:08.880Z,2.77
2018-11-11T21:57:37.728Z,1.20
2018-11-11T22:00:09.146Z,1.77
2018-11-11T22:02:37.897Z,2.73
2018-11-11T22:05:08.601Z,1.43
2018-11-11T22:07:37.667Z,1.47
2018-11-11T22:10:08.526Z,1.10
2018-11-11T22:12:37.495Z,1.10
2018-11-11T22:15:07.933Z,1.20
2018-11-11T22:17:36.630Z,1.27
2018-11-11T22:20:05.901Z,1.47
2018-11-11T22:22:34.605Z,1.67
2018-11-11T22:25:03.599Z,1.30
2018-11-11T22:27:32.252Z,1.70
2018-11-11T22:30:00.918Z,1.50
2018-11-11T22:32:29.447Z,1.00
2018-11-11T22:34:58.254Z,1.10
2018-11-11T22:37:26.993Z,0.80
2018-11-11T22:39:55.699Z,1.73
2018-11-11T22:42:24.305Z,1.47
2018-11-11T22:44:53.341Z,2.40
2018-11-11T22:47:21.908Z,1.23
2018-11-11T22:49:51.813Z,2.07
2018-11-11T22:52:21.039Z,0.90
2018-11-11T22:54:49.694Z,0.67
2018-11-11T22:57:18.360Z,1.90
2018-11-11T22:59:47.931Z,1.00
2018-11-11T23:02:17.033Z,0.73
2018-11-11T23:04:45.734Z,1.33
2018-11-11T23:07:14.911Z,0.87
2018-11-11T23:09:44.081Z,1.17
2018-11-11T23:12:13.766Z,1.27
2018-11-11T23:14:45.351Z,0.53
2018-11-11T23:17:13.877Z,0.60
2018-11-11T23:19:42.611Z,0.93
2018-11-11T23:22:11.269Z,0.70
2018-11-11T23:24:39.997Z,0.90
2018-11-11T23:27:09.095Z,0.93
2018-11-11T23:29:37.935Z,1.63
2018-11-11T23:32:06.563Z,1.17
2018-11-11T23:34:35.077Z,1.03
2018-11-11T23:37:04.140Z,0.40
2018-11-11T23:39:32.740Z,1.13
2018-11-11T23:42:01.372Z,0.67
2018-11-11T23:44:29.942Z,1.10
2018-11-11T23:46:58.615Z,1.80
2018-11-11T23:49:27.279Z,1.00
2018-11-11T23:51:56.094Z,0.73
2018-11-11T23:54:24.798Z,1.17
2018-11-11T23:56:53.562Z,0.60
2018-11-11T23:59:22.192Z,0.90
